NAS weather

Lynden Pindling International Airport
Nassau, New Providence, Bahamas

Public forecast

Using degrees Celsius for public forecast. Weather courtesy of forecast.io.

Current aviation weather report (METAR) for Lynden Pindling International Airport

Retrieved 2019/12/16 02:00 UTC (4 minutes ago):

MYNN 160200Z 09009KT 9999 SCT016 24/22 A3016

Aviation forecast (TAF) for Lynden Pindling International Airport

Retrieved 2019-12-16 00:44 UTC (1 hour ago):

TAF MYNN 152230Z 1600/1624 09008KT 9999 SCT020 BECMG 1606/1608 09015KT